Time;durP1;ratioP1;P1;durP2;ratioP2;P2;SDS_P1;SDS_P2;PMS_P1;PMS_P2;Temp;Humidity;BMP_temperature;BMP_pressure;BME280_temperature;BME280_humidity;BME280_pressure;Samples;Min_cycle;Max_cycle;Signal;HPM_P1;HPM_P2
2021/12/26 00:00:21;;;;;;;4.95;3.45;;;;;;;6.13;44.99;99307.98;1824082;78;21569;-64
2021/12/26 00:02:48;;;;;;;5.80;3.60;;;;;;;6.12;44.99;99316.36;1799210;78;21033;-63
2021/12/26 00:05:14;;;;;;;6.20;3.80;;;;;;;6.12;44.98;99315.04;1796238;78;21552;-64
2021/12/26 00:07:41;;;;;;;5.50;3.67;;;;;;;6.10;44.98;99317.85;1814273;78;21138;-64
2021/12/26 00:10:09;;;;;;;5.40;3.45;;;;;;;6.10;44.97;99319.17;1819104;78;20977;-64
2021/12/26 00:12:36;;;;;;;5.25;3.37;;;;;;;6.10;44.97;99321.80;1818544;78;21064;-64
2021/12/26 00:15:04;;;;;;;5.58;3.60;;;;;;;6.09;44.98;99321.95;1808842;78;21015;-63
2021/12/26 00:17:32;;;;;;;4.53;3.20;;;;;;;6.08;44.97;99314.53;1794416;78;21617;-64
2021/12/26 00:19:59;;;;;;;5.15;3.30;;;;;;;6.08;44.96;99318.49;1793633;78;21154;-63
2021/12/26 00:22:25;;;;;;;5.40;3.75;;;;;;;6.06;44.96;99320.42;1798207;78;20982;-63
2021/12/26 00:24:52;;;;;;;5.58;3.25;;;;;;;6.06;44.94;99323.05;1797154;79;21033;-62
2021/12/26 00:27:19;;;;;;;5.15;3.50;;;;;;;6.06;44.95;99322.23;1789237;78;21053;-63
2021/12/26 00:29:46;;;;;;;4.97;3.40;;;;;;;6.05;44.94;99323.23;1808506;78;21123;-62
2021/12/26 00:32:13;;;;;;;5.35;3.37;;;;;;;6.04;44.94;99334.25;1794778;79;21205;-65
2021/12/26 00:34:41;;;;;;;4.47;2.95;;;;;;;6.04;44.94;99333.42;1806402;78;21050;-63
2021/12/26 00:37:07;;;;;;;5.80;3.72;;;;;;;6.03;44.94;99333.92;1810991;78;20990;-63
2021/12/26 00:39:35;;;;;;;4.60;3.27;;;;;;;6.02;44.94;99328.30;1810526;78;21018;-63
2021/12/26 00:42:03;;;;;;;5.95;3.58;;;;;;;6.01;44.92;99324.52;1785162;79;21046;-64
2021/12/26 00:44:29;;;;;;;5.05;3.33;;;;;;;5.99;44.95;99320.70;1783446;79;21178;-63
2021/12/26 00:46:56;;;;;;;5.55;3.50;;;;;;;6.01;44.92;99321.88;1805579;78;21014;-63
2021/12/26 00:49:22;;;;;;;5.25;3.33;;;;;;;6.00;44.93;99324.16;1782646;79;21513;-62
2021/12/26 00:51:50;;;;;;;4.67;3.10;;;;;;;5.99;44.91;99333.03;1797395;78;20974;-63
2021/12/26 00:54:17;;;;;;;5.20;3.20;;;;;;;5.98;44.92;99333.52;1806364;78;21522;-63
2021/12/26 00:56:43;;;;;;;4.85;3.08;;;;;;;5.99;44.92;99340.94;1795009;79;21130;-63
2021/12/26 00:59:09;;;;;;;6.42;3.40;;;;;;;5.97;44.91;99337.16;1810386;78;21000;-63
2021/12/26 01:01:36;;;;;;;5.75;3.98;;;;;;;5.97;44.91;99331.88;1804618;79;21528;-63
2021/12/26 01:04:03;;;;;;;4.28;3.40;;;;;;;5.97;44.90;99331.88;1814291;79;21029;-63
2021/12/26 01:06:29;;;;;;;4.97;3.30;;;;;;;5.95;44.87;99324.62;1805350;78;21530;-63
2021/12/26 01:08:56;;;;;;;5.80;3.90;;;;;;;5.95;44.88;99318.02;1806155;78;21055;-64
2021/12/26 01:11:36;;;;;;;4.15;3.08;;;;;;;5.93;44.89;99317.31;1797977;78;21006;-62
2021/12/26 01:13:52;;;;;;;4.78;3.10;;;;;;;5.93;44.88;99315.14;1781088;79;20990;-62
2021/12/26 01:16:31;;;;;;;5.22;3.10;;;;;;;5.92;44.88;99314.32;1771141;80;21096;-63
2021/12/26 01:19:05;;;;;;;4.67;3.35;;;;;;;5.93;44.87;99319.09;1782500;79;21089;-63
2021/12/26 01:21:26;;;;;;;5.33;3.58;;;;;;;5.90;44.89;99312.33;1794409;78;21847;-63
2021/12/26 01:23:57;;;;;;;4.60;3.15;;;;;;;5.90;44.89;99314.96;1814148;78;20993;-63
2021/12/26 01:26:24;;;;;;;5.30;3.67;;;;;;;5.89;44.88;99322.05;1818249;78;21539;-63
2021/12/26 01:28:51;;;;;;;5.45;3.77;;;;;;;5.88;44.89;99320.38;1795955;78;20992;-62
2021/12/26 01:31:19;;;;;;;5.53;3.30;;;;;;;5.88;44.86;99316.91;1788705;78;21568;-63
2021/12/26 01:33:53;;;;;;;5.45;3.83;;;;;;;5.87;44.89;99317.41;1791398;78;20976;-62
2021/12/26 01:36:22;;;;;;;4.22;3.15;;;;;;;5.86;44.87;99310.97;1796018;78;21494;-63
2021/12/26 01:39:10;;;;;;;6.53;3.50;;;;;;;5.85;44.88;99319.84;1820959;77;21508;-63
2021/12/26 01:41:41;;;;;;;5.78;3.90;;;;;;;5.84;44.88;99328.24;1797459;77;21111;-63
2021/12/26 01:44:10;;;;;;;4.95;3.20;;;;;;;5.83;44.89;99332.34;1800830;78;21001;-63
2021/12/26 01:46:38;;;;;;;4.92;3.22;;;;;;;5.83;44.87;99335.83;1819503;78;21286;-63
2021/12/26 01:49:12;;;;;;;5.58;3.70;;;;;;;5.83;44.88;99333.66;1800713;77;20994;-63
2021/12/26 01:51:39;;;;;;;6.22;3.47;;;;;;;5.82;44.86;99330.70;1814421;77;21024;-63
2021/12/26 01:54:09;;;;;;;6.80;3.20;;;;;;;5.81;44.85;99329.84;1812504;78;21012;-63
2021/12/26 01:56:37;;;;;;;5.58;3.77;;;;;;;5.80;44.86;99330.02;1812210;77;20981;-62
2021/12/26 01:59:05;;;;;;;4.47;2.67;;;;;;;5.80;44.86;99329.52;1799958;78;21760;-62
2021/12/26 02:01:39;;;;;;;5.45;3.40;;;;;;;5.80;44.86;99327.38;1816728;78;21045;-64
2021/12/26 02:04:05;;;;;;;4.95;3.27;;;;;;;5.78;44.87;99331.47;1819264;78;21020;-63
2021/12/26 02:06:33;;;;;;;6.00;3.92;;;;;;;5.78;44.85;99332.80;1816270;77;21032;-63
2021/12/26 02:09:00;;;;;;;5.80;3.98;;;;;;;5.78;44.84;99330.66;1801971;77;21025;-63
2021/12/26 02:11:27;;;;;;;4.72;3.55;;;;;;;5.77;44.84;99334.25;1790193;78;21185;-64
2021/12/26 02:13:54;;;;;;;4.85;3.15;;;;;;;5.77;44.87;99332.44;1788227;78;21056;-64
2021/12/26 02:16:23;;;;;;;5.67;3.62;;;;;;;5.76;44.86;99331.30;1799975;77;21020;-64
2021/12/26 02:18:49;;;;;;;5.62;3.45;;;;;;;5.75;44.83;99333.57;1818751;78;20985;-63
2021/12/26 02:24:00;;;;;;;5.92;3.52;;;;;;;5.74;44.82;99331.43;1802076;78;21172;-64
2021/12/26 02:29:04;;;;;;;5.08;3.62;;;;;;;5.73;44.81;99327.62;1825905;78;21010;-63
2021/12/26 02:31:31;;;;;;;4.42;3.02;;;;;;;5.71;44.80;99330.39;1810708;78;21056;-63
2021/12/26 02:33:57;;;;;;;4.83;3.37;;;;;;;5.71;44.80;99333.03;1816496;78;21013;-63
2021/12/26 02:36:24;;;;;;;4.72;3.30;;;;;;;5.69;44.85;99335.81;1800536;78;21817;-63
2021/12/26 02:38:51;;;;;;;5.35;3.55;;;;;;;5.69;44.81;99339.76;1818167;78;21001;-64
2021/12/26 02:41:18;;;;;;;5.72;3.60;;;;;;;5.68;44.83;99347.34;1794799;77;20982;-64
2021/12/26 02:43:45;;;;;;;6.78;3.42;;;;;;;5.67;44.81;99345.67;1794626;78;21009;-64
2021/12/26 02:46:11;;;;;;;6.10;3.75;;;;;;;5.67;44.82;99346.98;1816239;78;20994;-63
2021/12/26 02:48:40;;;;;;;6.47;3.70;;;;;;;5.66;44.81;99353.25;1799881;78;21961;-63
2021/12/26 02:51:07;;;;;;;5.05;3.80;;;;;;;5.65;44.81;99352.89;1805129;78;21537;-64
2021/12/26 02:53:35;;;;;;;4.90;2.98;;;;;;;5.65;44.81;99356.02;1813593;78;21057;-63
2021/12/26 02:56:03;;;;;;;4.92;3.15;;;;;;;5.65;44.78;99354.20;1794612;78;21021;-64
2021/12/26 02:58:30;;;;;;;4.80;3.33;;;;;;;5.65;44.79;99354.20;1794688;78;21037;-64
2021/12/26 03:01:16;;;;;;;4.65;3.10;;;;;;;5.65;44.77;99352.89;1804765;77;21139;-64
2021/12/26 03:03:43;;;;;;;5.00;3.13;;;;;;;5.65;44.77;99349.44;1816069;78;20975;-64
2021/12/26 03:06:22;;;;;;;6.45;3.58;;;;;;;5.64;44.77;99355.67;1803927;78;21972;-63
2021/12/26 03:08:48;;;;;;;4.85;3.20;;;;;;;5.63;44.77;99359.30;1793222;78;21024;-63
2021/12/26 03:11:14;;;;;;;5.78;3.45;;;;;;;5.62;44.77;99362.42;1796867;78;21037;-63
2021/12/26 03:13:41;;;;;;;5.15;3.65;;;;;;;5.60;44.74;99362.20;1801950;78;21305;-64
2021/12/26 03:16:08;;;;;;;5.47;3.30;;;;;;;5.59;44.77;99364.02;1801103;78;21045;-65
2021/12/26 03:18:35;;;;;;;6.08;4.03;;;;;;;5.60;44.77;99369.65;1793674;80;21040;-64
2021/12/26 03:21:02;;;;;;;4.72;3.30;;;;;;;5.58;44.75;99374.23;1795230;78;21020;-63
2021/12/26 03:23:28;;;;;;;5.12;3.42;;;;;;;5.58;44.75;99374.23;1792822;78;21521;-64
2021/12/26 03:25:57;;;;;;;6.97;4.00;;;;;;;5.58;44.75;99375.55;1790708;78;21136;-64
2021/12/26 03:28:26;;;;;;;4.90;3.35;;;;;;;5.58;44.74;99378.66;1792008;78;21010;-64
2021/12/26 03:30:53;;;;;;;5.10;3.62;;;;;;;5.58;44.72;99374.23;1803092;79;21049;-64
2021/12/26 03:33:22;;;;;;;5.58;3.40;;;;;;;5.57;44.72;99378.33;1795628;79;21528;-63
2021/12/26 03:35:49;;;;;;;4.83;3.40;;;;;;;5.56;44.72;99376.66;1799741;79;21084;-64
2021/12/26 03:38:16;;;;;;;4.80;3.50;;;;;;;5.56;44.71;99377.97;1785846;78;21923;-64
2021/12/26 03:40:46;;;;;;;5.67;3.98;;;;;;;5.56;44.72;99372.20;1808023;78;20967;-64
2021/12/26 03:43:14;;;;;;;5.33;3.45;;;;;;;5.55;44.69;99373.20;1782377;80;21042;-63
2021/12/26 03:45:42;;;;;;;5.83;3.60;;;;;;;5.55;44.69;99373.69;1794685;78;21022;-64
2021/12/26 03:48:09;;;;;;;4.20;3.37;;;;;;;5.53;44.68;99371.19;1811837;79;21022;-64
2021/12/26 03:50:40;;;;;;;4.92;3.45;;;;;;;5.54;44.68;99378.11;1806284;79;21956;-64
2021/12/26 03:53:06;;;;;;;6.15;3.50;;;;;;;5.54;44.69;99382.55;1814230;78;21496;-64
2021/12/26 03:55:33;;;;;;;5.85;3.47;;;;;;;5.53;44.68;99382.23;1796079;79;21002;-64
2021/12/26 03:58:00;;;;;;;5.40;3.70;;;;;;;5.53;44.67;99392.77;1801323;78;21027;-64
2021/12/26 04:00:28;;;;;;;5.00;3.25;;;;;;;5.52;44.68;99393.23;1804799;79;21078;-65
2021/12/26 04:02:56;;;;;;;5.25;3.37;;;;;;;5.51;44.68;99388.46;1792668;79;21133;-64
2021/12/26 04:05:23;;;;;;;6.00;3.33;;;;;;;5.51;44.67;99391.09;1791636;79;21017;-64
2021/12/26 04:07:49;;;;;;;5.97;3.75;;;;;;;5.50;44.67;99385.96;1808583;78;20987;-64
2021/12/26 04:10:17;;;;;;;5.35;3.60;;;;;;;5.50;44.65;99392.55;1813315;79;21082;-65
2021/12/26 04:12:47;;;;;;;5.05;3.20;;;;;;;5.49;44.64;99391.73;1814409;79;21023;-64
2021/12/26 04:15:16;;;;;;;5.53;3.60;;;;;;;5.49;44.65;99395.68;1784158;78;21138;-65
2021/12/26 04:17:44;;;;;;;5.42;3.90;;;;;;;5.48;44.65;99395.32;1797291;78;21018;-64
2021/12/26 04:20:11;;;;;;;5.50;3.00;;;;;;;5.47;44.64;99392.36;1806715;79;21025;-66
2021/12/26 04:22:37;;;;;;;6.37;4.13;;;;;;;5.48;44.66;99393.18;1782557;79;21459;-64
2021/12/26 04:25:05;;;;;;;5.62;3.95;;;;;;;5.46;44.64;99395.13;1784937;77;21275;-64
2021/12/26 04:27:33;;;;;;;4.85;3.50;;;;;;;5.45;44.65;99394.31;1791426;78;21089;-65
2021/12/26 04:29:59;;;;;;;5.15;3.60;;;;;;;5.45;44.65;99389.53;1790295;78;21012;-65
2021/12/26 04:32:26;;;;;;;6.87;3.35;;;;;;;5.45;44.66;99398.76;1799858;79;20999;-65
2021/12/26 04:34:52;;;;;;;5.47;3.33;;;;;;;5.45;44.65;99396.12;1782446;79;21417;-65
2021/12/26 04:37:21;;;;;;;5.37;3.70;;;;;;;5.44;44.64;99408.44;1808926;78;21041;-65
2021/12/26 04:39:49;;;;;;;6.42;4.28;;;;;;;5.44;44.61;99403.67;1794460;78;21204;-65
2021/12/26 04:42:16;;;;;;;5.08;3.75;;;;;;;5.44;44.61;99406.30;1805730;78;21042;-64
2021/12/26 04:44:43;;;;;;;4.78;3.15;;;;;;;5.43;44.60;99412.56;1793351;78;21069;-64
2021/12/26 04:47:27;;;;;;;5.55;3.90;;;;;;;5.42;44.60;99413.52;1798709;79;20997;-66
2021/12/26 04:49:54;;;;;;;5.80;3.87;;;;;;;5.41;44.61;99415.33;1786883;79;21081;-66
2021/12/26 04:52:22;;;;;;;6.37;4.22;;;;;;;5.41;44.60;99411.84;1812694;79;21123;-65
2021/12/26 04:54:52;;;;;;;5.97;3.70;;;;;;;5.40;44.58;99418.11;1785023;79;21002;-65
2021/12/26 04:57:19;;;;;;;4.45;3.58;;;;;;;5.40;44.56;99418.92;1787922;78;21557;-65
2021/12/26 04:59:45;;;;;;;5.80;3.67;;;;;;;5.39;44.57;99419.91;1803699;78;20950;-65
2021/12/26 05:02:12;;;;;;;6.55;4.30;;;;;;;5.39;44.57;99414.64;1798401;78;20990;-64
2021/12/26 05:04:38;;;;;;;5.95;4.05;;;;;;;5.38;44.56;99421.37;1782625;79;21147;-65
2021/12/26 05:07:05;;;;;;;6.95;4.17;;;;;;;5.37;44.56;99425.81;1792958;79;21635;-64
2021/12/26 05:09:32;;;;;;;5.75;4.10;;;;;;;5.37;44.56;99426.28;1786509;79;21007;-65
2021/12/26 05:11:59;;;;;;;5.90;4.45;;;;;;;5.36;44.58;99427.27;1812533;78;21057;-65
2021/12/26 05:14:26;;;;;;;7.00;4.00;;;;;;;5.36;44.56;99436.48;1806274;79;21561;-65
2021/12/26 05:16:52;;;;;;;5.70;4.25;;;;;;;5.35;44.56;99428.23;1811995;79;23295;-65
2021/12/26 05:19:18;;;;;;;5.55;4.22;;;;;;;5.35;44.54;99433.49;1797436;78;21021;-65
2021/12/26 05:21:45;;;;;;;6.53;4.28;;;;;;;5.34;44.52;99433.98;1800128;79;21006;-65
2021/12/26 05:24:11;;;;;;;6.12;4.70;;;;;;;5.33;44.52;99429.68;1806566;78;21467;-65
2021/12/26 05:26:39;;;;;;;6.97;4.15;;;;;;;5.34;44.53;99427.89;1811076;79;20971;-64
2021/12/26 05:29:06;;;;;;;6.90;4.78;;;;;;;5.34;44.52;99429.22;1791379;78;21815;-65
2021/12/26 05:31:33;;;;;;;6.97;4.72;;;;;;;5.31;44.52;99432.48;1783010;79;21057;-65
2021/12/26 05:33:59;;;;;;;7.62;5.15;;;;;;;5.31;44.51;99440.84;1812896;79;21015;-65
2021/12/26 05:36:25;;;;;;;7.33;5.08;;;;;;;5.29;44.52;99438.38;1791964;79;21030;-65
2021/12/26 05:38:54;;;;;;;6.08;4.20;;;;;;;5.30;44.51;99441.83;1802722;78;21054;-66
2021/12/26 05:41:21;;;;;;;6.72;4.58;;;;;;;5.30;44.50;99447.10;1781409;79;23147;-66
2021/12/26 05:43:56;;;;;;;6.00;4.17;;;;;;;5.28;44.50;99447.73;1789474;78;21050;-65
2021/12/26 05:46:22;;;;;;;6.03;4.33;;;;;;;5.28;44.47;99445.09;1791394;79;21026;-65
2021/12/26 05:48:50;;;;;;;5.67;4.10;;;;;;;5.28;44.48;99449.05;1798207;79;21088;-65
2021/12/26 05:51:18;;;;;;;6.53;4.67;;;;;;;5.27;44.48;99454.81;1805292;79;21027;-65
2021/12/26 05:53:48;;;;;;;6.90;4.87;;;;;;;5.27;44.48;99451.33;1809686;77;21142;-65
2021/12/26 05:56:15;;;;;;;6.60;4.50;;;;;;;5.25;44.48;99454.59;1812121;79;21036;-64
2021/12/26 05:58:44;;;;;;;8.20;5.65;;;;;;;5.25;44.49;99461.17;1813040;79;21095;-64
2021/12/26 06:01:10;;;;;;;7.35;5.00;;;;;;;5.25;44.47;99462.02;1814059;79;21069;-65
2021/12/26 06:03:37;;;;;;;7.05;4.90;;;;;;;5.25;44.47;99463.80;1814600;79;21498;-65
2021/12/26 06:06:04;;;;;;;6.95;4.83;;;;;;;5.26;44.46;99472.06;1809052;78;21116;-64
2021/12/26 06:08:34;;;;;;;7.80;5.08;;;;;;;5.24;44.43;99469.56;1789356;79;21029;-65
2021/12/26 06:11:00;;;;;;;5.50;4.15;;;;;;;5.24;44.44;99466.11;1814382;79;21067;-65
2021/12/26 06:13:30;;;;;;;5.33;4.17;;;;;;;5.23;44.44;99466.57;1798276;78;21037;-65
2021/12/26 06:15:59;;;;;;;6.83;4.97;;;;;;;5.23;44.44;99482.87;1727289;82;21160;-64
2021/12/26 06:18:26;;;;;;;8.18;5.55;;;;;;;5.21;44.42;99480.37;1767866;80;21307;-65
2021/12/26 06:21:11;;;;;;;7.35;5.05;;;;;;;5.22;44.43;99482.54;1724063;82;21022;-65
2021/12/26 06:23:50;;;;;;;7.30;5.35;;;;;;;5.21;44.43;99480.37;1729226;81;21185;-65
2021/12/26 06:26:30;;;;;;;6.45;4.95;;;;;;;5.21;44.43;99483.00;1759244;81;21130;-64
2021/12/26 06:28:57;;;;;;;7.35;4.85;;;;;;;5.21;44.45;99479.55;1753807;81;21093;-64
2021/12/26 06:31:43;;;;;;;7.10;5.10;;;;;;;5.21;44.46;99485.63;1760899;81;21136;-64
2021/12/26 06:34:27;;;;;;;7.12;5.33;;;;;;;5.20;44.44;99477.90;1734536;82;21004;-64
2021/12/26 06:37:12;;;;;;;6.12;4.17;;;;;;;5.19;44.46;99479.68;1745863;81;21210;-65
2021/12/26 06:39:59;;;;;;;7.50;4.70;;;;;;;5.19;44.45;99476.22;1759002;81;21078;-64
2021/12/26 06:42:45;;;;;;;9.28;5.55;;;;;;;5.17;44.48;99480.30;1735848;81;21036;-64
2021/12/26 06:45:32;;;;;;;7.72;5.37;;;;;;;5.16;44.47;99482.61;1734592;82;21030;-64
2021/12/26 06:48:06;;;;;;;8.30;5.25;;;;;;;5.17;44.49;99485.57;1758309;81;21512;-64
2021/12/26 06:50:35;;;;;;;7.08;5.00;;;;;;;5.16;44.49;99478.66;1737592;81;21058;-64
2021/12/26 06:53:01;;;;;;;8.10;5.70;;;;;;;5.17;44.49;99484.25;1764898;81;21485;-64
2021/12/26 06:55:28;;;;;;;8.00;5.08;;;;;;;5.18;44.49;99483.30;1754430;81;21167;-64
2021/12/26 06:57:54;;;;;;;8.10;5.35;;;;;;;5.19;44.48;99491.53;1735510;81;21148;-64
2021/12/26 07:00:21;;;;;;;9.25;5.30;;;;;;;5.20;44.47;99493.70;1734520;82;21082;-64
2021/12/26 07:02:47;;;;;;;7.65;5.25;;;;;;;5.21;44.46;99490.91;1735582;81;21506;-65
2021/12/26 07:05:15;;;;;;;7.60;5.33;;;;;;;5.22;44.46;99488.63;1737625;81;21041;-63
2021/12/26 07:07:43;;;;;;;7.95;5.15;;;;;;;5.23;44.45;99479.73;1764191;81;21542;-62
2021/12/26 07:10:10;;;;;;;7.78;5.80;;;;;;;5.25;44.42;99474.34;1751049;81;21465;-64
2021/12/26 07:12:38;;;;;;;8.75;5.28;;;;;;;5.25;44.43;99479.14;1747486;81;20946;-65
2021/12/26 07:15:08;;;;;;;7.90;5.42;;;;;;;5.27;44.41;99471.08;1762482;79;21047;-63
2021/12/26 07:17:37;;;;;;;7.78;5.37;;;;;;;5.28;44.41;99473.58;1808251;78;21510;-65
2021/12/26 07:20:06;;;;;;;7.92;5.55;;;;;;;5.30;44.39;99480.85;1818550;78;21056;-63
2021/12/26 07:22:35;;;;;;;8.58;5.30;;;;;;;5.32;44.38;99485.48;1776861;80;21786;-64
2021/12/26 07:25:03;;;;;;;8.03;5.92;;;;;;;5.32;44.36;99484.17;1788746;78;21530;-64
2021/12/26 07:27:30;;;;;;;6.97;5.15;;;;;;;5.35;44.36;99488.35;1809345;78;21005;-64
2021/12/26 07:30:15;;;;;;;8.05;5.30;;;;;;;5.36;44.35;99483.91;1812189;78;21530;-63
2021/12/26 07:32:43;;;;;;;7.33;5.47;;;;;;;5.37;44.35;99484.23;1784919;79;21042;-63
2021/12/26 07:35:10;;;;;;;7.67;6.00;;;;;;;5.36;44.36;99488.67;1805735;79;21154;-63
2021/12/26 07:37:38;;;;;;;7.22;5.17;;;;;;;5.39;44.36;99487.55;1780449;79;21072;-63
2021/12/26 07:40:06;;;;;;;8.08;5.67;;;;;;;5.40;44.35;99501.91;1802770;79;21542;-63
2021/12/26 07:42:33;;;;;;;7.40;5.30;;;;;;;5.43;44.33;99499.50;1802850;79;21021;-64
2021/12/26 07:45:17;;;;;;;7.95;5.35;;;;;;;5.44;44.30;99494.56;1799796;78;21436;-65
2021/12/26 07:47:46;;;;;;;6.60;5.63;;;;;;;5.46;44.29;99505.78;1783398;79;21772;-64
2021/12/26 07:50:12;;;;;;;8.40;5.90;;;;;;;5.47;44.27;99502.20;1771338;80;21076;-64
2021/12/26 07:52:53;;;;;;;7.72;5.58;;;;;;;5.50;44.26;99511.12;1756370;79;21115;-64
2021/12/26 07:55:32;;;;;;;7.70;5.30;;;;;;;5.51;44.23;99504.89;1751855;80;21079;-64
2021/12/26 07:58:18;;;;;;;8.75;6.15;;;;;;;5.53;44.22;99504.26;1771175;81;21507;-64
2021/12/26 08:01:03;;;;;;;7.35;5.67;;;;;;;5.54;44.20;99505.91;1775701;79;21198;-63
2021/12/26 08:03:36;;;;;;;7.50;5.35;;;;;;;5.54;44.20;99511.17;1783126;79;21053;-64
2021/12/26 08:06:21;;;;;;;8.55;5.42;;;;;;;5.56;44.16;99506.59;1785045;79;21561;-64
2021/12/26 08:08:49;;;;;;;7.90;6.03;;;;;;;5.57;44.14;99512.22;1786454;78;21041;-64
2021/12/26 08:11:16;;;;;;;8.95;6.10;;;;;;;5.59;44.15;99507.64;1805483;78;20986;-64
2021/12/26 08:13:42;;;;;;;9.05;5.97;;;;;;;5.61;44.13;99507.50;1814509;78;21179;-64
2021/12/26 08:16:09;;;;;;;8.95;6.05;;;;;;;5.63;44.09;99508.19;1787125;78;21010;-63
2021/12/26 08:18:36;;;;;;;10.23;6.33;;;;;;;5.65;44.08;99501.80;1782461;79;21406;-64
2021/12/26 08:21:02;;;;;;;12.10;5.87;;;;;;;5.67;44.08;99501.16;1782473;79;21072;-64
2021/12/26 08:23:29;;;;;;;9.43;6.35;;;;;;;5.69;44.04;99499.22;1787813;78;21108;-64
2021/12/26 08:25:56;;;;;;;9.63;5.85;;;;;;;5.71;44.01;99494.62;1798946;78;21216;-64
2021/12/26 08:28:23;;;;;;;8.90;5.58;;;;;;;5.75;44.00;99494.36;1793758;78;21024;-64
2021/12/26 08:30:50;;;;;;;8.45;5.85;;;;;;;5.78;43.97;99498.04;1793410;78;21092;-64
2021/12/26 08:33:16;;;;;;;8.85;5.87;;;;;;;5.80;43.94;99489.00;1794981;78;22017;-64
2021/12/26 08:35:45;;;;;;;8.85;6.35;;;;;;;5.84;43.91;99495.64;1794115;78;20979;-64
2021/12/26 08:38:14;;;;;;;8.38;5.95;;;;;;;5.88;43.87;99490.92;1794480;78;23203;-63
2021/12/26 08:40:40;;;;;;;7.97;5.78;;;;;;;5.93;43.86;99489.16;1800643;78;21513;-64
2021/12/26 08:43:07;;;;;;;8.50;5.80;;;;;;;5.97;43.81;99485.28;1801817;78;21033;-63
2021/12/26 08:45:33;;;;;;;7.97;5.58;;;;;;;6.00;43.79;99483.19;1801868;78;21111;-64
2021/12/26 08:48:00;;;;;;;8.73;7.22;;;;;;;6.08;43.77;99483.32;1793438;78;21077;-64
2021/12/26 08:50:27;;;;;;;10.40;6.20;;;;;;;6.15;43.76;99489.33;1797827;78;21210;-64
2021/12/26 08:52:54;;;;;;;8.03;6.03;;;;;;;6.21;43.75;99474.23;1796468;78;21029;-64
2021/12/26 08:55:24;;;;;;;8.70;6.08;;;;;;;6.29;43.77;99479.59;1820247;78;21072;-64
2021/12/26 08:57:51;;;;;;;8.40;6.20;;;;;;;6.37;43.74;99477.54;1795326;78;21046;-66
2021/12/26 09:00:19;;;;;;;9.70;6.45;;;;;;;6.45;43.73;99476.30;1793509;79;21041;-65
2021/12/26 09:02:47;;;;;;;9.18;6.20;;;;;;;6.54;43.67;99462.73;1796711;78;21159;-65
2021/12/26 09:05:13;;;;;;;9.83;6.08;;;;;;;6.61;43.62;99468.58;1826010;78;21306;-65
2021/12/26 09:07:40;;;;;;;7.62;5.53;;;;;;;6.71;43.58;99470.33;1826149;78;21001;-65
2021/12/26 09:10:09;;;;;;;9.20;5.85;;;;;;;6.78;43.55;99468.72;1796097;78;21072;-65
2021/12/26 09:12:38;;;;;;;9.40;6.87;;;;;;;6.87;43.47;99469.15;1793933;78;21041;-66
2021/12/26 09:15:06;;;;;;;7.67;5.95;;;;;;;6.95;43.41;99460.47;1825723;78;21557;-63
2021/12/26 09:17:32;;;;;;;7.80;6.08;;;;;;;7.03;43.40;99464.50;1821859;78;21664;-63
2021/12/26 09:19:58;;;;;;;8.08;5.60;;;;;;;7.13;43.38;99468.37;1804987;78;21045;-64
2021/12/26 09:22:25;;;;;;;8.83;6.35;;;;;;;7.19;43.32;99467.29;1796372;78;21178;-64
2021/12/26 09:24:52;;;;;;;9.05;6.20;;;;;;;7.25;43.27;99471.95;1794678;78;21041;-63
2021/12/26 09:27:18;;;;;;;8.78;5.95;;;;;;;7.31;43.21;99475.80;1793441;79;21150;-63
2021/12/26 09:29:45;;;;;;;8.95;6.15;;;;;;;7.35;43.15;99473.19;1794471;78;21009;-62
2021/12/26 09:32:12;;;;;;;9.38;6.08;;;;;;;7.39;43.09;99467.92;1794950;78;21049;-62
2021/12/26 09:34:39;;;;;;;8.98;6.20;;;;;;;7.42;43.03;99473.42;1824151;78;21026;-64
2021/12/26 09:37:08;;;;;;;8.65;6.20;;;;;;;7.43;43.02;99470.59;1824252;78;21525;-63
2021/12/26 09:40:23;;;;;;;9.15;6.15;;;;;;;7.51;42.98;99461.06;1838903;76;27000;-62
2021/12/26 09:42:49;;;;;;;8.48;5.67;;;;;;;7.50;42.93;99462.89;1823998;77;21507;-63
2021/12/26 09:45:16;;;;;;;8.58;6.33;;;;;;;7.51;42.90;99471.64;1819164;78;21248;-63
2021/12/26 09:47:43;;;;;;;8.75;6.30;;;;;;;7.54;42.88;99462.09;1808772;78;21037;-63
2021/12/26 09:50:12;;;;;;;9.30;6.22;;;;;;;7.55;42.86;99471.20;1794848;77;20957;-63
2021/12/26 09:52:42;;;;;;;8.55;6.20;;;;;;;7.57;42.84;99476.30;1809392;77;20949;-62
2021/12/26 09:55:09;;;;;;;8.00;5.75;;;;;;;7.58;42.82;99470.87;1793938;80;21017;-63
2021/12/26 09:57:35;;;;;;;7.90;5.83;;;;;;;7.61;42.81;99480.29;1793957;80;22432;-62
2021/12/26 10:00:07;;;;;;;8.03;5.30;;;;;;;7.62;42.76;99470.07;1793766;79;21022;-62
2021/12/26 10:02:35;;;;;;;9.28;7.00;;;;;;;7.64;42.74;99472.06;1770836;79;21497;-62
2021/12/26 10:05:02;;;;;;;8.45;6.37;;;;;;;7.65;42.73;99465.80;1753971;81;21023;-63
2021/12/26 10:07:32;;;;;;;8.48;5.97;;;;;;;7.69;42.71;99463.18;1742380;81;20995;-63
2021/12/26 10:09:58;;;;;;;6.55;5.53;;;;;;;7.72;42.71;99465.50;1742122;82;22879;-64
2021/12/26 10:12:26;;;;;;;8.28;6.37;;;;;;;7.77;42.70;99463.22;1765507;81;21239;-64
2021/12/26 10:14:54;;;;;;;8.33;5.45;;;;;;;7.84;42.69;99463.41;1780356;80;21057;-63
2021/12/26 10:17:26;;;;;;;7.03;5.15;;;;;;;7.91;42.60;99469.73;1784483;80;21077;-63
2021/12/26 10:19:54;;;;;;;9.03;6.53;;;;;;;8.00;42.58;99466.66;1784471;80;20990;-63
2021/12/26 10:22:26;;;;;;;9.35;5.85;;;;;;;8.08;42.51;99464.86;1768252;80;21954;-63
2021/12/26 10:24:53;;;;;;;7.30;5.40;;;;;;;8.17;42.46;99462.23;1773964;80;21039;-62
2021/12/26 10:27:23;;;;;;;7.90;5.40;;;;;;;8.25;42.47;99456.50;1779535;80;21513;-63
2021/12/26 10:29:53;;;;;;;7.20;5.40;;;;;;;8.35;42.40;99464.30;1782787;80;21025;-63
2021/12/26 10:32:28;;;;;;;9.48;5.55;;;;;;;8.44;42.35;99454.11;1782845;80;21077;-63
2021/12/26 10:35:11;;;;;;;7.45;4.85;;;;;;;8.54;42.33;99451.83;1782656;80;21839;-64
2021/12/26 10:37:49;;;;;;;6.25;5.28;;;;;;;8.63;42.36;99445.53;1757445;80;21041;-63
2021/12/26 10:40:24;;;;;;;6.70;5.45;;;;;;;8.70;42.32;99454.48;1749068;81;21482;-63
2021/12/26 10:42:55;;;;;;;6.08;4.65;;;;;;;8.76;42.16;99457.80;1776239;80;21228;-64
2021/12/26 10:45:25;;;;;;;8.60;5.22;;;;;;;8.80;42.03;99452.51;1751533;81;20985;-63
2021/12/26 10:48:06;;;;;;;6.65;5.03;;;;;;;8.85;41.96;99459.48;1769499;80;21114;-62
2021/12/26 10:50:36;;;;;;;7.37;5.53;;;;;;;8.92;41.96;99460.97;1799228;78;21561;-63
2021/12/26 10:53:05;;;;;;;6.75;5.10;;;;;;;9.04;41.92;99458.84;1791750;78;21033;-64
2021/12/26 10:55:36;;;;;;;8.08;5.22;;;;;;;9.14;41.89;99451.55;1807119;78;21130;-62
2021/12/26 10:58:07;;;;;;;7.08;4.95;;;;;;;9.29;41.75;99449.55;1787974;80;21033;-65
2021/12/26 11:00:37;;;;;;;6.72;4.78;;;;;;;9.41;41.70;99445.58;1787213;78;21101;-63
2021/12/26 11:03:10;;;;;;;6.83;5.17;;;;;;;9.53;41.70;99452.17;1820275;78;21014;-64
2021/12/26 11:05:44;;;;;;;6.50;4.95;;;;;;;9.65;41.73;99448.66;1812692;77;25467;-62
2021/12/26 11:08:28;;;;;;;6.47;4.35;;;;;;;9.77;41.76;99455.77;1792191;78;21181;-63
2021/12/26 11:10:55;;;;;;;5.78;4.37;;;;;;;9.88;41.77;99459.38;1792726;78;23124;-63
2021/12/26 11:13:31;;;;;;;6.50;4.70;;;;;;;10.00;41.78;99455.86;1819506;78;21018;-63
2021/12/26 11:16:06;;;;;;;6.05;4.47;;;;;;;10.08;41.76;99455.00;1820192;78;21540;-63
2021/12/26 11:18:33;;;;;;;5.78;4.97;;;;;;;10.16;41.74;99454.96;1820570;78;21136;-63
2021/12/26 11:21:03;;;;;;;6.35;4.92;;;;;;;10.20;41.67;99454.97;1817532;78;21033;-64
2021/12/26 11:23:36;;;;;;;5.58;4.92;;;;;;;10.26;41.61;99448.97;1808364;78;20999;-63
2021/12/26 11:26:15;;;;;;;6.53;4.97;;;;;;;10.32;41.56;99454.12;1820424;78;21141;-63
2021/12/26 11:28:45;;;;;;;6.08;4.53;;;;;;;10.36;41.50;99449.60;1816173;78;21499;-63
2021/12/26 11:31:15;;;;;;;5.33;4.45;;;;;;;10.40;41.44;99448.76;1787910;80;21041;-64
2021/12/26 11:33:42;;;;;;;6.12;5.10;;;;;;;10.43;41.38;99451.89;1792664;78;20994;-63
2021/12/26 11:36:10;;;;;;;7.58;5.15;;;;;;;10.47;41.32;99452.37;1804959;78;21010;-63
2021/12/26 11:38:37;;;;;;;4.95;4.35;;;;;;;10.49;41.24;99454.84;1820546;78;21092;-62
2021/12/26 11:41:43;;;;;;;5.50;4.42;;;;;;;10.52;41.14;99453.99;1829076;78;21521;-63
2021/12/26 11:44:52;;;;;;;7.30;4.22;;;;;;;10.52;41.04;99455.32;1829089;78;21009;-65
2021/12/26 11:48:09;;;;;;;6.83;4.10;;;;;;;10.52;40.95;99455.32;1800471;78;20981;-63
2021/12/26 11:51:41;;;;;;;5.90;4.08;;;;;;;10.49;40.92;99459.67;1811205;78;21037;-63
2021/12/26 11:54:57;;;;;;;5.92;4.55;;;;;;;10.46;40.91;99460.01;1776715;78;21819;-63
2021/12/26 11:57:54;;;;;;;6.80;4.58;;;;;;;10.40;40.97;99467.34;1809477;77;21061;-63
2021/12/26 12:00:28;;;;;;;5.35;3.92;;;;;;;10.35;41.00;99467.03;1796257;79;21012;-63